Time;durP1;ratioP1;P1;durP2;ratioP2;P2;SDS_P1;SDS_P2;PMS_P1;PMS_P2;Temp;Humidity;BMP_temperature;BMP_pressure;BME280_temperature;BME280_humidity;BME280_pressure;Samples;Min_cycle;Max_cycle;Signal;HPM_P1;HPM_P2
2022/09/29 00:01:18;;;;;;;13.23;7.22;;;;;;;;;;5042166;28;20424;-83
2022/09/29 00:03:45;;;;;;;13.80;7.57;;;;;;;;;;5043485;28;20045;-82
2022/09/29 00:06:38;;;;;;;15.02;7.30;;;;;;;;;;5041134;28;20132;-82
2022/09/29 00:09:11;;;;;;;18.38;8.25;;;;;;;;;;5043819;28;20033;-82
2022/09/29 00:11:39;;;;;;;13.50;7.10;;;;;;;;;;5040852;28;20069;-81
2022/09/29 00:14:08;;;;;;;13.73;7.53;;;;;;;;;;5026320;28;20122;-82
2022/09/29 00:16:35;;;;;;;13.32;6.93;;;;;;;;;;5039788;28;20040;-82
2022/09/29 00:19:03;;;;;;;16.50;7.18;;;;;;;;;;5043386;28;20461;-82
2022/09/29 00:21:31;;;;;;;18.80;7.75;;;;;;;;;;5043055;28;20136;-82
2022/09/29 00:24:04;;;;;;;12.60;6.97;;;;;;;;;;5026389;28;20119;-82
2022/09/29 00:26:32;;;;;;;17.88;7.45;;;;;;;;;;5042464;28;20754;-82
2022/09/29 00:29:03;;;;;;;15.07;7.45;;;;;;;;;;5041605;28;20041;-82
2022/09/29 00:31:36;;;;;;;14.15;7.70;;;;;;;;;;5041902;28;20056;-83
2022/09/29 00:34:27;;;;;;;13.73;6.85;;;;;;;;;;5041540;28;20203;-82
2022/09/29 00:36:55;;;;;;;17.90;8.32;;;;;;;;;;5009537;28;20037;-82
2022/09/29 00:39:27;;;;;;;13.27;7.15;;;;;;;;;;5042414;28;20568;-81
2022/09/29 00:41:56;;;;;;;14.88;7.35;;;;;;;;;;5041253;28;20106;-82
2022/09/29 00:44:56;;;;;;;15.95;7.40;;;;;;;;;;5042708;28;20053;-82
2022/09/29 00:47:24;;;;;;;14.20;7.57;;;;;;;;;;5042477;28;20053;-81
2022/09/29 00:49:56;;;;;;;15.50;7.20;;;;;;;;;;5044414;28;20059;-82
2022/09/29 00:52:56;;;;;;;14.02;7.15;;;;;;;;;;5042087;28;20033;-82
2022/09/29 00:55:30;;;;;;;15.80;7.22;;;;;;;;;;5023112;28;20041;-82
2022/09/29 00:58:11;;;;;;;12.82;7.68;;;;;;;;;;5026399;28;20121;-82
2022/09/29 01:00:40;;;;;;;15.88;7.50;;;;;;;;;;5041986;28;20038;-82
2022/09/29 01:03:15;;;;;;;13.85;7.68;;;;;;;;;;5024736;28;20040;-82
2022/09/29 01:05:50;;;;;;;13.05;7.10;;;;;;;;;;5025608;28;20083;-82
2022/09/29 01:08:35;;;;;;;14.45;7.15;;;;;;;;;;5041750;28;20527;-82
2022/09/29 01:11:03;;;;;;;12.25;6.88;;;;;;;;;;5042533;28;20044;-82
2022/09/29 01:13:32;;;;;;;15.73;7.72;;;;;;;;;;5041280;28;20049;-82
2022/09/29 01:16:00;;;;;;;17.90;7.22;;;;;;;;;;5040885;28;20128;-82
2022/09/29 01:18:54;;;;;;;16.98;7.38;;;;;;;;;;5042294;28;20040;-82
2022/09/29 01:21:35;;;;;;;17.83;7.13;;;;;;;;;;5043716;28;20045;-81
2022/09/29 01:24:37;;;;;;;13.27;6.65;;;;;;;;;;5042381;28;20067;-82
2022/09/29 01:27:25;;;;;;;13.23;6.72;;;;;;;;;;5040932;28;20029;-81
2022/09/29 01:30:12;;;;;;;11.82;6.30;;;;;;;;;;5042496;28;20412;-82
2022/09/29 01:32:56;;;;;;;12.07;6.68;;;;;;;;;;5023859;28;20064;-82
2022/09/29 01:36:11;;;;;;;10.70;6.07;;;;;;;;;;5043341;28;20037;-82
2022/09/29 01:38:58;;;;;;;13.38;6.60;;;;;;;;;;5042747;28;20072;-81
2022/09/29 01:41:50;;;;;;;11.80;6.60;;;;;;;;;;5042035;28;20071;-82
2022/09/29 01:44:44;;;;;;;14.25;6.63;;;;;;;;;;5018677;28;20032;-82
2022/09/29 01:47:29;;;;;;;13.68;6.40;;;;;;;;;;5041864;28;20068;-82
2022/09/29 01:50:22;;;;;;;12.25;6.50;;;;;;;;;;5042535;28;20102;-82
2022/09/29 01:52:58;;;;;;;12.80;7.05;;;;;;;;;;5043166;28;20045;-82
2022/09/29 01:55:36;;;;;;;17.38;7.85;;;;;;;;;;5042072;28;20033;-81
2022/09/29 01:58:08;;;;;;;15.38;6.55;;;;;;;;;;5041574;28;20061;-82
2022/09/29 02:00:42;;;;;;;12.73;6.43;;;;;;;;;;5042587;28;20041;-82
2022/09/29 02:03:40;;;;;;;16.42;6.85;;;;;;;;;;5042636;28;20168;-81
2022/09/29 02:06:14;;;;;;;11.63;5.68;;;;;;;;;;5016890;28;20538;-82
2022/09/29 02:08:53;;;;;;;11.70;6.47;;;;;;;;;;5041729;28;20064;-82
2022/09/29 02:11:22;;;;;;;13.00;6.57;;;;;;;;;;5042174;28;20056;-82
2022/09/29 02:14:11;;;;;;;11.95;6.30;;;;;;;;;;5040227;28;20051;-82
2022/09/29 02:17:10;;;;;;;13.13;6.80;;;;;;;;;;5009220;28;20112;-82
2022/09/29 02:19:42;;;;;;;11.95;6.10;;;;;;;;;;5044852;28;20496;-82
2022/09/29 02:22:10;;;;;;;14.13;6.30;;;;;;;;;;5029278;28;20060;-82
2022/09/29 02:24:38;;;;;;;14.63;7.05;;;;;;;;;;5045180;28;20048;-81
2022/09/29 02:27:05;;;;;;;14.90;6.25;;;;;;;;;;5044288;28;20033;-82
2022/09/29 02:29:35;;;;;;;12.65;6.55;;;;;;;;;;5045308;28;20132;-82
2022/09/29 02:32:09;;;;;;;11.45;6.43;;;;;;;;;;5044853;28;20558;-82
2022/09/29 02:34:41;;;;;;;11.23;5.57;;;;;;;;;;5046153;28;20060;-82
2022/09/29 02:37:39;;;;;;;12.00;5.93;;;;;;;;;;5043667;28;20029;-82
2022/09/29 02:40:49;;;;;;;12.93;6.28;;;;;;;;;;5045820;28;20044;-81
2022/09/29 02:43:50;;;;;;;13.85;6.97;;;;;;;;;;5044268;28;20040;-82
2022/09/29 02:47:00;;;;;;;13.80;6.47;;;;;;;;;;5045874;28;20480;-82
2022/09/29 02:49:53;;;;;;;10.65;5.47;;;;;;;;;;5031805;28;20558;-81
2022/09/29 02:53:02;;;;;;;13.93;6.40;;;;;;;;;;5026979;28;20033;-81
2022/09/29 02:55:51;;;;;;;13.75;6.90;;;;;;;;;;5045190;28;20037;-81
2022/09/29 02:58:37;;;;;;;12.68;5.78;;;;;;;;;;5044067;28;20055;-82
2022/09/29 03:01:06;;;;;;;10.95;6.18;;;;;;;;;;5044964;28;20048;-82
2022/09/29 03:03:39;;;;;;;11.93;6.30;;;;;;;;;;5045005;28;20037;-82
2022/09/29 03:06:31;;;;;;;12.40;6.40;;;;;;;;;;5032164;28;20056;-82
2022/09/29 03:08:59;;;;;;;11.25;6.25;;;;;;;;;;5043159;28;20045;-82
2022/09/29 03:11:29;;;;;;;11.43;6.40;;;;;;;;;;5044263;28;20056;-82
2022/09/29 03:14:21;;;;;;;10.70;5.32;;;;;;;;;;5043960;28;20040;-81
2022/09/29 03:16:49;;;;;;;14.02;6.10;;;;;;;;;;5046065;28;20043;-82
2022/09/29 03:19:17;;;;;;;12.27;5.97;;;;;;;;;;5044109;28;20578;-81
2022/09/29 03:21:45;;;;;;;10.05;5.85;;;;;;;;;;5046386;28;20052;-82
2022/09/29 03:24:17;;;;;;;11.48;5.88;;;;;;;;;;5045895;28;20079;-82
2022/09/29 03:26:45;;;;;;;12.75;6.03;;;;;;;;;;5027900;28;20488;-81
2022/09/29 03:32:06;;;;;;;15.32;5.57;;;;;;;;;;5027005;28;21009;-81
2022/09/29 03:34:34;;;;;;;13.65;6.13;;;;;;;;;;5045061;28;20048;-82
2022/09/29 03:37:08;;;;;;;11.52;5.63;;;;;;;;;;5029630;28;20938;-82
2022/09/29 03:39:35;;;;;;;13.23;5.72;;;;;;;;;;5045629;28;20051;-82
2022/09/29 03:42:04;;;;;;;10.95;5.70;;;;;;;;;;5044591;28;20037;-81
2022/09/29 03:44:32;;;;;;;12.07;6.28;;;;;;;;;;5046192;28;20508;-82
2022/09/29 03:47:28;;;;;;;10.07;5.43;;;;;;;;;;5042736;28;20033;-81
2022/09/29 03:50:00;;;;;;;11.15;5.15;;;;;;;;;;5043754;28;20978;-82
2022/09/29 03:52:53;;;;;;;13.23;5.70;;;;;;;;;;5045624;28;20033;-82
2022/09/29 03:55:22;;;;;;;11.65;5.80;;;;;;;;;;5045777;28;20041;-81
2022/09/29 03:57:49;;;;;;;11.40;5.43;;;;;;;;;;5043254;28;20076;-81
2022/09/29 04:00:45;;;;;;;11.30;5.57;;;;;;;;;;5044366;28;20530;-82
2022/09/29 04:03:18;;;;;;;10.73;5.68;;;;;;;;;;5044162;28;20049;-82
2022/09/29 04:05:47;;;;;;;12.55;6.18;;;;;;;;;;5043370;28;20147;-81
2022/09/29 04:08:16;;;;;;;14.00;5.88;;;;;;;;;;5042954;28;20037;-81
2022/09/29 04:10:46;;;;;;;11.73;6.03;;;;;;;;;;5025261;28;20044;-82
2022/09/29 04:13:40;;;;;;;15.85;6.20;;;;;;;;;;5044341;28;20040;-82
2022/09/29 04:16:15;;;;;;;10.07;5.43;;;;;;;;;;5026351;28;20083;-81
2022/09/29 04:18:43;;;;;;;12.40;5.65;;;;;;;;;;5044873;28;20036;-82
2022/09/29 04:21:12;;;;;;;12.55;6.00;;;;;;;;;;5044939;28;20049;-82
2022/09/29 04:23:53;;;;;;;11.25;5.68;;;;;;;;;;5044690;28;20146;-82
2022/09/29 04:26:22;;;;;;;10.27;5.57;;;;;;;;;;5045519;28;20100;-82
2022/09/29 04:28:55;;;;;;;10.10;5.93;;;;;;;;;;5043396;28;20061;-82
2022/09/29 04:31:22;;;;;;;11.10;5.68;;;;;;;;;;5025242;28;20412;-82
2022/09/29 04:33:50;;;;;;;10.00;5.25;;;;;;;;;;5009728;28;20546;-82
2022/09/29 04:36:18;;;;;;;11.48;5.40;;;;;;;;;;5043030;28;20116;-82
2022/09/29 04:39:16;;;;;;;9.80;5.80;;;;;;;;;;5041982;28;20037;-82
2022/09/29 04:41:44;;;;;;;11.85;5.53;;;;;;;;;;5043956;28;20133;-82
2022/09/29 04:44:11;;;;;;;13.40;6.07;;;;;;;;;;5042679;28;20573;-82
2022/09/29 04:46:40;;;;;;;14.00;5.22;;;;;;;;;;5042948;28;20053;-81
2022/09/29 04:49:11;;;;;;;13.18;5.70;;;;;;;;;;5003680;28;20047;-82
2022/09/29 04:51:40;;;;;;;11.88;5.38;;;;;;;;;;5026761;28;20561;-82
2022/09/29 04:54:08;;;;;;;9.48;5.63;;;;;;;;;;5042285;28;20040;-82
2022/09/29 04:57:00;;;;;;;10.40;5.32;;;;;;;;;;5044676;28;20531;-81
2022/09/29 04:59:28;;;;;;;10.55;5.53;;;;;;;;;;5044840;28;20067;-82
2022/09/29 05:01:55;;;;;;;11.68;6.30;;;;;;;;;;5043303;28;20052;-81
2022/09/29 05:04:28;;;;;;;12.18;5.13;;;;;;;;;;5040387;28;20045;-81
2022/09/29 05:07:20;;;;;;;13.10;5.55;;;;;;;;;;5040596;28;20170;-83
2022/09/29 05:09:47;;;;;;;9.65;4.75;;;;;;;;;;5042484;28;20044;-82
2022/09/29 05:12:16;;;;;;;9.90;5.32;;;;;;;;;;5041581;28;20382;-82
2022/09/29 05:14:43;;;;;;;11.63;5.53;;;;;;;;;;5039070;28;20043;-82
2022/09/29 05:17:12;;;;;;;10.38;5.40;;;;;;;;;;5025040;28;20045;-82
2022/09/29 05:20:04;;;;;;;10.85;5.60;;;;;;;;;;5040593;28;20119;-82
2022/09/29 05:22:31;;;;;;;14.77;6.43;;;;;;;;;;5042563;28;20156;-82
2022/09/29 05:24:59;;;;;;;11.43;5.75;;;;;;;;;;5042687;28;20091;-81
2022/09/29 05:27:27;;;;;;;8.85;4.93;;;;;;;;;;5042823;28;20037;-81
2022/09/29 05:29:55;;;;;;;12.27;5.38;;;;;;;;;;5025024;28;20041;-83
2022/09/29 05:32:23;;;;;;;11.15;5.45;;;;;;;;;;5043710;28;20053;-84
2022/09/29 05:34:56;;;;;;;11.50;5.75;;;;;;;;;;5041110;28;20558;-81
2022/09/29 05:37:24;;;;;;;10.93;5.40;;;;;;;;;;5042000;28;20053;-81
2022/09/29 05:39:52;;;;;;;12.40;5.85;;;;;;;;;;5040318;28;20044;-82
2022/09/29 05:42:46;;;;;;;11.93;5.57;;;;;;;;;;5024452;28;20041;-83
2022/09/29 05:45:14;;;;;;;10.73;5.85;;;;;;;;;;5038196;28;20389;-82
2022/09/29 05:48:06;;;;;;;10.90;5.22;;;;;;;;;;5027538;28;20044;-83
2022/09/29 05:50:43;;;;;;;14.88;5.90;;;;;;;;;;5043617;28;20559;-82
2022/09/29 05:53:10;;;;;;;13.30;5.82;;;;;;;;;;5043551;28;20049;-82
2022/09/29 05:55:38;;;;;;;12.10;6.20;;;;;;;;;;5048273;28;20049;-81
2022/09/29 05:58:06;;;;;;;17.15;6.53;;;;;;;;;;5030392;28;20048;-82
2022/09/29 06:01:24;;;;;;;14.18;5.72;;;;;;;;;;5037467;28;20791;-82
2022/09/29 06:03:55;;;;;;;14.80;6.72;;;;;;;;;;5048331;28;20064;-82
2022/09/29 06:06:27;;;;;;;16.75;6.30;;;;;;;;;;5047266;28;20440;-82
2022/09/29 06:09:00;;;;;;;18.00;6.88;;;;;;;;;;5014590;28;20044;-82
2022/09/29 06:11:32;;;;;;;19.13;7.93;;;;;;;;;;5048126;28;20037;-82
2022/09/29 06:14:05;;;;;;;16.63;7.25;;;;;;;;;;5020799;28;20126;-82
2022/09/29 06:16:34;;;;;;;16.30;7.40;;;;;;;;;;5021205;28;20520;-82
2022/09/29 06:19:03;;;;;;;17.77;7.05;;;;;;;;;;5030044;28;20042;-82
2022/09/29 06:21:34;;;;;;;16.23;7.80;;;;;;;;;;5048063;28;20803;-82
2022/09/29 06:24:06;;;;;;;16.58;7.28;;;;;;;;;;5047999;28;20048;-82
2022/09/29 06:26:59;;;;;;;16.98;7.35;;;;;;;;;;5047589;28;20582;-82
2022/09/29 06:29:51;;;;;;;14.93;7.25;;;;;;;;;;5029958;28;20036;-82
2022/09/29 06:32:19;;;;;;;18.95;8.25;;;;;;;;;;5040855;28;20452;-82
2022/09/29 06:37:42;;;;;;;18.50;7.80;;;;;;;;;;5047602;28;20532;-82
2022/09/29 06:40:10;;;;;;;22.75;9.27;;;;;;;;;;5029619;28;20106;-82
2022/09/29 06:42:38;;;;;;;19.05;9.15;;;;;;;;;;5019885;28;20037;-82
2022/09/29 06:45:06;;;;;;;21.30;9.02;;;;;;;;;;5030007;28;20045;-82
2022/09/29 06:47:39;;;;;;;27.70;9.35;;;;;;;;;;5046549;28;20045;-82
2022/09/29 06:50:08;;;;;;;18.48;9.15;;;;;;;;;;5047421;28;20095;-82
2022/09/29 06:52:50;;;;;;;22.27;9.90;;;;;;;;;;5047597;28;20048;-81
2022/09/29 06:55:30;;;;;;;22.67;10.32;;;;;;;;;;5010119;28;20048;-82
2022/09/29 06:57:58;;;;;;;24.85;10.20;;;;;;;;;;5047073;28;20110;-82
2022/09/29 07:00:36;;;;;;;26.48;9.73;;;;;;;;;;5029705;28;20044;-82
2022/09/29 07:03:03;;;;;;;21.52;10.10;;;;;;;;;;5011681;28;20045;-82
2022/09/29 07:05:35;;;;;;;26.40;9.63;;;;;;;;;;5047235;28;20043;-82
2022/09/29 07:08:04;;;;;;;23.02;10.60;;;;;;;;;;5046711;28;20500;-82
2022/09/29 07:10:32;;;;;;;22.40;10.65;;;;;;;;;;5047012;28;20041;-82
2022/09/29 07:12:59;;;;;;;24.58;10.65;;;;;;;;;;5047033;28;20243;-82
2022/09/29 07:15:30;;;;;;;22.17;10.00;;;;;;;;;;5029727;28;20099;-82
2022/09/29 07:17:59;;;;;;;23.35;10.27;;;;;;;;;;5028793;28;20037;-83
2022/09/29 07:20:29;;;;;;;25.10;10.50;;;;;;;;;;5029399;28;20037;-82
2022/09/29 07:23:01;;;;;;;24.38;11.27;;;;;;;;;;5029882;28;20048;-82
2022/09/29 07:25:54;;;;;;;26.30;11.32;;;;;;;;;;5045445;28;20488;-82
2022/09/29 07:28:27;;;;;;;22.98;10.63;;;;;;;;;;5046614;28;20060;-82
2022/09/29 07:31:18;;;;;;;24.38;11.00;;;;;;;;;;5038689;28;20051;-82
2022/09/29 07:33:48;;;;;;;30.88;13.05;;;;;;;;;;5013049;28;20053;-82
2022/09/29 07:36:18;;;;;;;28.33;12.30;;;;;;;;;;5044551;28;20416;-82
2022/09/29 07:38:52;;;;;;;26.58;11.35;;;;;;;;;;5046555;28;20037;-82
2022/09/29 07:41:22;;;;;;;26.98;12.07;;;;;;;;;;5028987;28;20114;-82
2022/09/29 07:44:13;;;;;;;25.33;12.38;;;;;;;;;;5028822;28;20123;-82
2022/09/29 07:47:05;;;;;;;27.10;11.95;;;;;;;;;;5045182;28;20036;-82
2022/09/29 07:49:33;;;;;;;30.15;13.13;;;;;;;;;;5046289;28;20039;-82
2022/09/29 07:52:01;;;;;;;28.20;12.75;;;;;;;;;;5045698;28;20376;-82
2022/09/29 07:54:30;;;;;;;31.38;13.73;;;;;;;;;;5045227;28;20106;-82
2022/09/29 07:56:59;;;;;;;29.08;12.90;;;;;;;;;;5027977;28;20052;-82
2022/09/29 07:59:28;;;;;;;30.63;13.82;;;;;;;;;;5046041;28;20036;-82
2022/09/29 08:02:20;;;;;;;27.20;12.82;;;;;;;;;;5027265;28;20115;-82
2022/09/29 08:04:48;;;;;;;34.60;13.40;;;;;;;;;;5011196;28;20049;-82
2022/09/29 08:07:41;;;;;;;32.67;14.23;;;;;;;;;;5033404;28;20523;-82
2022/09/29 08:10:15;;;;;;;33.47;15.52;;;;;;;;;;5029021;28;20072;-82
2022/09/29 08:12:43;;;;;;;36.67;15.80;;;;;;;;;;5028032;28;20044;-82
2022/09/29 08:15:16;;;;;;;37.08;15.25;;;;;;;;;;5028633;28;20041;-83
2022/09/29 08:17:44;;;;;;;32.38;15.00;;;;;;;;;;5026256;28;20045;-82
2022/09/29 08:20:12;;;;;;;33.92;14.35;;;;;;;;;;5027863;28;20033;-83
2022/09/29 08:22:48;;;;;;;28.00;13.43;;;;;;;;;;5045190;28;20094;-82
2022/09/29 08:25:18;;;;;;;33.33;14.23;;;;;;;;;;5045221;28;20037;-82
2022/09/29 08:28:10;;;;;;;30.58;14.02;;;;;;;;;;5045107;28;20037;-82
2022/09/29 08:30:47;;;;;;;32.08;13.93;;;;;;;;;;5045150;28;20052;-82
2022/09/29 08:33:15;;;;;;;31.58;14.43;;;;;;;;;;5042976;28;20114;-82
2022/09/29 08:35:43;;;;;;;25.75;12.98;;;;;;;;;;5027656;28;20595;-82
2022/09/29 08:38:13;;;;;;;30.83;14.75;;;;;;;;;;5027649;28;20049;-82
2022/09/29 08:41:04;;;;;;;32.10;14.20;;;;;;;;;;5044755;28;20106;-82
2022/09/29 08:43:39;;;;;;;29.38;13.93;;;;;;;;;;5043688;28;20152;-82
2022/09/29 08:46:20;;;;;;;29.15;13.70;;;;;;;;;;5045483;28;20053;-83
2022/09/29 08:49:15;;;;;;;24.55;13.02;;;;;;;;;;5027649;28;20048;-83
2022/09/29 08:52:04;;;;;;;29.48;13.02;;;;;;;;;;5044753;28;20175;-83
2022/09/29 08:54:46;;;;;;;26.67;11.95;;;;;;;;;;5045100;28;20044;-82
2022/09/29 08:57:18;;;;;;;24.77;12.85;;;;;;;;;;5044814;28;20052;-82
2022/09/29 08:59:55;;;;;;;30.85;13.48;;;;;;;;;;5044755;28;20135;-82
2022/09/29 09:02:33;;;;;;;29.38;12.18;;;;;;;;;;5043711;28;20053;-82
2022/09/29 09:05:20;;;;;;;25.02;11.75;;;;;;;;;;5044724;28;20076;-83
2022/09/29 09:07:59;;;;;;;22.02;11.43;;;;;;;;;;5044652;28;20071;-82
2022/09/29 09:11:16;;;;;;;21.73;11.52;;;;;;;;;;5044784;28;20041;-82
2022/09/29 09:14:07;;;;;;;21.13;11.52;;;;;;;;;;5044188;28;20412;-83
2022/09/29 09:16:57;;;;;;;23.67;11.18;;;;;;;;;;5043748;28;20506;-83
2022/09/29 09:19:45;;;;;;;21.10;9.80;;;;;;;;;;5043025;28;20128;-82
2022/09/29 09:22:29;;;;;;;21.65;10.27;;;;;;;;;;5027661;28;20135;-82
2022/09/29 09:25:04;;;;;;;16.98;9.15;;;;;;;;;;5027549;28;20522;-82
2022/09/29 09:27:47;;;;;;;20.13;10.20;;;;;;;;;;5044281;28;20048;-83
2022/09/29 09:30:55;;;;;;;17.50;9.52;;;;;;;;;;5047135;28;20090;-83
2022/09/29 09:33:55;;;;;;;18.52;9.23;;;;;;;;;;5048152;28;20132;-83
2022/09/29 09:36:41;;;;;;;15.18;8.43;;;;;;;;;;5048414;28;20903;-82
2022/09/29 09:39:16;;;;;;;20.52;9.40;;;;;;;;;;5048052;28;20049;-83
2022/09/29 09:41:49;;;;;;;16.10;8.57;;;;;;;;;;5030578;28;20134;-83
2022/09/29 09:44:24;;;;;;;19.35;9.32;;;;;;;;;;5048753;28;20068;-83
2022/09/29 09:46:55;;;;;;;16.33;8.80;;;;;;;;;;5030273;28;20040;-82
2022/09/29 09:49:42;;;;;;;12.65;7.70;;;;;;;;;;5031252;28;20577;-83
2022/09/29 09:52:18;;;;;;;15.65;7.45;;;;;;;;;;5048610;28;20464;-83
2022/09/29 09:55:00;;;;;;;12.85;7.55;;;;;;;;;;5048811;28;20400;-83
2022/09/29 09:57:34;;;;;;;14.75;7.50;;;;;;;;;;5047939;28;20041;-83
2022/09/29 10:00:07;;;;;;;13.10;7.53;;;;;;;;;;5046859;28;20156;-83
2022/09/29 10:02:49;;;;;;;14.57;7.47;;;;;;;;;;5047382;28;20045;-83
2022/09/29 10:05:25;;;;;;;14.82;7.18;;;;;;;;;;5031780;28;20087;-83
2022/09/29 10:07:54;;;;;;;14.45;7.95;;;;;;;;;;5014172;28;20415;-83
2022/09/29 10:10:25;;;;;;;13.20;7.72;;;;;;;;;;5030373;28;20062;-83
2022/09/29 10:13:00;;;;;;;12.48;7.75;;;;;;;;;;5048097;28;20136;-83
2022/09/29 10:15:43;;;;;;;14.27;7.47;;;;;;;;;;5047843;28;20412;-83
2022/09/29 10:18:19;;;;;;;13.65;7.03;;;;;;;;;;5047374;28;20420;-83
2022/09/29 10:20:57;;;;;;;16.10;8.27;;;;;;;;;;5047727;28;20037;-83
2022/09/29 10:23:34;;;;;;;14.23;7.47;;;;;;;;;;5047909;28;20045;-83
2022/09/29 10:26:15;;;;;;;13.73;7.28;;;;;;;;;;5030294;28;20087;-83
2022/09/29 10:29:35;;;;;;;13.95;7.88;;;;;;;;;;5047787;28;20037;-83
2022/09/29 10:32:20;;;;;;;13.65;7.65;;;;;;;;;;5047087;28;20055;-83
2022/09/29 10:34:53;;;;;;;14.60;8.52;;;;;;;;;;5047799;28;20535;-83
2022/09/29 10:37:49;;;;;;;13.93;8.07;;;;;;;;;;5047053;28;20033;-83
2022/09/29 10:40:22;;;;;;;15.27;7.97;;;;;;;;;;5046794;28;20041;-83
2022/09/29 10:42:50;;;;;;;14.18;8.32;;;;;;;;;;5030213;28;20051;-83
2022/09/29 10:45:25;;;;;;;14.00;7.75;;;;;;;;;;5030472;28;20116;-83
2022/09/29 10:47:56;;;;;;;13.98;7.90;;;;;;;;;;5029760;28;20044;-83
2022/09/29 10:50:26;;;;;;;13.00;6.80;;;;;;;;;;5047501;28;20046;-83
2022/09/29 10:52:56;;;;;;;14.27;7.75;;;;;;;;;;5047543;28;20110;-83
2022/09/29 10:55:26;;;;;;;13.38;6.55;;;;;;;;;;5048063;28;20132;-83
2022/09/29 10:57:57;;;;;;;10.07;6.60;;;;;;;;;;5047419;28;20127;-82
2022/09/29 11:00:31;;;;;;;11.38;6.05;;;;;;;;;;5047418;28;20149;-82
2022/09/29 11:03:22;;;;;;;13.05;7.03;;;;;;;;;;5028790;28;20496;-82
2022/09/29 11:06:14;;;;;;;11.27;6.60;;;;;;;;;;5047200;28;20127;-82
2022/09/29 11:09:25;;;;;;;12.02;6.07;;;;;;;;;;5014475;28;20044;-82
2022/09/29 11:11:56;;;;;;;9.30;6.07;;;;;;;;;;5046773;28;20049;-82
2022/09/29 11:14:35;;;;;;;14.45;6.35;;;;;;;;;;5030885;28;20393;-83
2022/09/29 11:17:27;;;;;;;11.80;7.25;;;;;;;;;;5046322;28;20052;-83
2022/09/29 11:20:13;;;;;;;12.70;6.68;;;;;;;;;;5045976;28;20060;-82
2022/09/29 11:22:48;;;;;;;12.55;6.50;;;;;;;;;;5028681;28;20048;-82
2022/09/29 11:25:21;;;;;;;10.95;5.68;;;;;;;;;;5047363;28;20041;-82
2022/09/29 11:28:02;;;;;;;9.75;5.75;;;;;;;;;;5028759;28;20132;-83
2022/09/29 11:30:44;;;;;;;9.88;5.40;;;;;;;;;;5046769;28;20041;-82
2022/09/29 11:33:31;;;;;;;9.30;5.40;;;;;;;;;;5028502;28;20045;-83
2022/09/29 11:36:31;;;;;;;9.75;5.47;;;;;;;;;;5045232;28;20075;-82
2022/09/29 11:39:14;;;;;;;10.45;5.35;;;;;;;;;;4943582;29;20142;-82
2022/09/29 11:42:01;;;;;;;10.50;5.28;;;;;;;;;;4927400;29;20568;-83
2022/09/29 11:45:02;;;;;;;9.10;5.35;;;;;;;;;;4936180;29;20089;-83
2022/09/29 11:47:59;;;;;;;11.95;5.10;;;;;;;;;;4926968;29;20047;-82
2022/09/29 11:50:35;;;;;;;8.65;5.05;;;;;;;;;;4934863;29;20157;-82
2022/09/29 11:53:30;;;;;;;11.52;5.50;;;;;;;;;;4935401;29;20035;-82
2022/09/29 11:56:30;;;;;;;9.30;5.45;;;;;;;;;;4935771;28;20064;-82
2022/09/29 12:00:08;;;;;;;10.80;4.88;;;;;;;;;;4934750;29;20035;-82
2022/09/29 12:03:01;;;;;;;9.65;5.10;;;;;;;;;;4854905;29;20743;-82
2022/09/29 12:06:03;;;;;;;11.30;6.75;;;;;;;;;;4798572;29;20062;-82
2022/09/29 12:08:55;;;;;;;8.35;4.93;;;;;;;;;;4803663;29;20389;-82
2022/09/29 12:11:42;;;;;;;10.02;6.35;;;;;;;;;;4803685;29;20071;-82
2022/09/29 12:15:11;;;;;;;7.80;4.78;;;;;;;;;;4811931;29;20048;-82
2022/09/29 12:17:49;;;;;;;12.38;6.45;;;;;;;;;;4860678;29;20425;-82
2022/09/29 12:20:23;;;;;;;9.02;5.40;;;;;;;;;;4877288;29;20059;-82
2022/09/29 12:23:04;;;;;;;10.07;6.13;;;;;;;;;;4876919;29;20060;-82
2022/09/29 12:25:39;;;;;;;9.43;5.15;;;;;;;;;;4877760;29;20084;-82
2022/09/29 12:28:16;;;;;;;10.50;5.45;;;;;;;;;;4876984;29;20560;-82
2022/09/29 12:31:15;;;;;;;10.68;5.25;;;;;;;;;;4865017;29;20513;-82
2022/09/29 12:33:52;;;;;;;9.13;5.55;;;;;;;;;;4862227;29;20065;-82
2022/09/29 12:36:52;;;;;;;11.23;6.30;;;;;;;;;;4879470;29;20060;-82
2022/09/29 12:39:36;;;;;;;7.90;5.35;;;;;;;;;;4919219;29;20196;-82
2022/09/29 12:43:07;;;;;;;9.60;4.93;;;;;;;;;;4989598;28;20049;-82
2022/09/29 12:46:05;;;;;;;8.57;5.35;;;;;;;;;;5045901;28;20047;-82
2022/09/29 12:49:04;;;;;;;8.20;5.10;;;;;;;;;;5043503;28;20447;-82
2022/09/29 12:51:43;;;;;;;8.45;5.38;;;;;;;;;;5027902;28;20132;-82
2022/09/29 12:54:15;;;;;;;10.07;5.68;;;;;;;;;;5028111;28;20063;-82
2022/09/29 12:56:54;;;;;;;8.13;4.90;;;;;;;;;;5044653;28;20410;-82
2022/09/29 12:59:33;;;;;;;10.25;5.80;;;;;;;;;;5043189;28;20504;-82
2022/09/29 13:02:28;;;;;;;7.35;4.93;;;;;;;;;;5040602;28;20127;-83
2022/09/29 13:05:01;;;;;;;10.82;5.25;;;;;;;;;;5045032;28;20187;-82
2022/09/29 13:07:35;;;;;;;9.73;6.38;;;;;;;;;;5045192;28;20045;-82
2022/09/29 13:10:19;;;;;;;9.63;5.70;;;;;;;;;;5043548;28;20056;-82
2022/09/29 13:13:27;;;;;;;12.95;5.85;;;;;;;;;;5042950;28;20025;-83
2022/09/29 13:16:27;;;;;;;10.13;4.75;;;;;;;;;;5045069;28;20041;-82
2022/09/29 13:19:12;;;;;;;11.77;5.03;;;;;;;;;;5043635;28;20033;-83
2022/09/29 13:22:07;;;;;;;9.23;5.07;;;;;;;;;;5042135;28;20128;-82
2022/09/29 13:24:48;;;;;;;7.85;4.40;;;;;;;;;;5042589;28;20044;-82
2022/09/29 13:27:36;;;;;;;8.30;4.68;;;;;;;;;;5044082;28;20045;-83
2022/09/29 13:30:09;;;;;;;8.68;4.18;;;;;;;;;;5043853;28;20048;-83
2022/09/29 13:32:41;;;;;;;8.57;4.07;;;;;;;;;;5041405;28;20041;-83
2022/09/29 13:35:58;;;;;;;6.90;4.30;;;;;;;;;;5043617;28;20040;-83
2022/09/29 13:38:35;;;;;;;11.20;4.22;;;;;;;;;;5042547;28;20048;-83
2022/09/29 13:41:19;;;;;;;6.47;4.38;;;;;;;;;;5043416;28;20604;-84
2022/09/29 13:43:49;;;;;;;8.25;4.78;;;;;;;;;;5042826;28;20618;-83
2022/09/29 13:46:31;;;;;;;7.43;4.60;;;;;;;;;;5043588;28;20052;-82
2022/09/29 13:49:12;;;;;;;10.43;5.25;;;;;;;;;;5026809;28;20060;-83
2022/09/29 13:52:10;;;;;;;7.65;5.45;;;;;;;;;;5020355;28;20041;-83
2022/09/29 13:54:40;;;;;;;9.90;6.05;;;;;;;;;;5011002;28;20580;-84
2022/09/29 13:57:31;;;;;;;9.48;6.25;;;;;;;;;;5013754;28;20087;-83
2022/09/29 14:00:16;;;;;;;10.00;6.07;;;;;;;;;;5026551;28;20045;-83
2022/09/29 14:03:27;;;;;;;8.75;6.20;;;;;;;;;;5043256;28;20033;-83
2022/09/29 14:06:19;;;;;;;9.63;6.70;;;;;;;;;;5027352;28;21013;-82
2022/09/29 14:09:18;;;;;;;10.90;6.78;;;;;;;;;;5044070;28;20049;-82
2022/09/29 14:11:55;;;;;;;11.13;7.63;;;;;;;;;;5043008;28;20041;-83
2022/09/29 14:14:31;;;;;;;9.95;7.07;;;;;;;;;;5043955;28;20060;-83
2022/09/29 14:17:20;;;;;;;13.32;7.57;;;;;;;;;;5042633;28;20036;-83
2022/09/29 14:20:09;;;;;;;10.85;7.80;;;;;;;;;;5045400;28;20123;-83
2022/09/29 14:23:04;;;;;;;15.40;8.45;;;;;;;;;;5011293;28;20136;-84
2022/09/29 14:25:40;;;;;;;13.50;8.18;;;;;;;;;;5013089;28;20944;-83
2022/09/29 14:28:19;;;;;;;11.52;8.05;;;;;;;;;;5045411;28;20037;-83
2022/09/29 14:31:20;;;;;;;15.23;7.68;;;;;;;;;;5048050;28;20043;-84
2022/09/29 14:33:51;;;;;;;12.93;8.00;;;;;;;;;;5028202;28;20040;-84
2022/09/29 14:36:22;;;;;;;11.63;8.40;;;;;;;;;;5021398;28;20056;-84
2022/09/29 14:38:54;;;;;;;13.60;9.10;;;;;;;;;;5027560;28;20098;-84
2022/09/29 14:41:44;;;;;;;14.90;9.18;;;;;;;;;;5047072;28;20048;-84
2022/09/29 14:54:07;;;;;;;15.50;9.30;;;;;;;;;;4976960;28;20051;-84
2022/09/29 14:57:06;;;;;;;12.48;8.15;;;;;;;;;;4976432;28;20144;-83
2022/09/29 15:00:00;;;;;;;13.40;8.30;;;;;;;;;;4965436;28;20519;-85
2022/09/29 15:02:54;;;;;;;12.35;7.93;;;;;;;;;;4976541;28;20035;-84
2022/09/29 15:06:13;;;;;;;14.05;7.97;;;;;;;;;;4977085;28;20057;-84
2022/09/29 15:09:02;;;;;;;12.48;7.93;;;;;;;;;;4976692;28;20066;-84
2022/09/29 15:11:36;;;;;;;13.35;8.50;;;;;;;;;;4966034;28;20503;-84
2022/09/29 15:14:20;;;;;;;12.32;7.68;;;;;;;;;;4993028;28;20105;-84
2022/09/29 15:17:09;;;;;;;15.90;8.93;;;;;;;;;;4967429;28;20058;-84
2022/09/29 15:19:50;;;;;;;14.57;8.70;;;;;;;;;;4976787;28;20546;-84
2022/09/29 15:22:30;;;;;;;13.70;8.13;;;;;;;;;;4952219;28;20481;-84
2022/09/29 15:25:29;;;;;;;12.23;8.18;;;;;;;;;;4977032;28;20457;-84
2022/09/29 15:28:00;;;;;;;12.63;8.45;;;;;;;;;;5027629;28;20044;-84
2022/09/29 15:30:39;;;;;;;15.48;9.13;;;;;;;;;;5030523;28;20041;-84
2022/09/29 15:33:27;;;;;;;17.25;10.05;;;;;;;;;;5028877;28;20103;-84
2022/09/29 15:36:03;;;;;;;18.48;10.18;;;;;;;;;;5029201;28;20495;-84
2022/09/29 15:39:01;;;;;;;17.75;10.55;;;;;;;;;;5047155;28;20130;-84
2022/09/29 15:41:32;;;;;;;17.88;10.25;;;;;;;;;;5028910;28;20102;-84
2022/09/29 15:44:04;;;;;;;19.60;10.10;;;;;;;;;;5045561;28;20045;-84
2022/09/29 15:46:33;;;;;;;16.75;10.55;;;;;;;;;;5028801;28;20052;-84
2022/09/29 15:49:02;;;;;;;17.15;9.85;;;;;;;;;;5046664;28;20064;-84
2022/09/29 15:52:10;;;;;;;16.90;10.57;;;;;;;;;;5045088;28;20037;-84
2022/09/29 15:54:43;;;;;;;17.42;11.07;;;;;;;;;;5046799;28;20045;-84
2022/09/29 15:57:52;;;;;;;18.15;10.55;;;;;;;;;;5035281;28;20184;-84
2022/09/29 16:00:25;;;;;;;14.15;9.25;;;;;;;;;;5046892;28;20068;-84